createdAt,value
2019-02-27T00:01:58.179Z,26.70
2019-02-27T00:04:26.780Z,31.23
2019-02-27T00:06:55.377Z,25.37
2019-02-27T00:09:23.960Z,25.63
2019-02-27T00:11:52.607Z,29.30
2019-02-27T00:14:21.199Z,27.83
2019-02-27T00:16:49.784Z,23.17
2019-02-27T00:19:18.384Z,23.07
2019-02-27T00:21:46.993Z,32.13
2019-02-27T00:24:16.573Z,28.97
2019-02-27T00:26:45.173Z,23.27
2019-02-27T00:29:13.859Z,24.60
2019-02-27T00:31:45.304Z,28.10
2019-02-27T00:34:13.031Z,24.27
2019-02-27T00:36:44.787Z,23.63
2019-02-27T00:39:12.064Z,24.57
2019-02-27T00:41:43.107Z,27.40
2019-02-27T00:44:10.987Z,28.90
2019-02-27T00:46:39.566Z,25.13
2019-02-27T00:49:08.156Z,26.27
2019-02-27T00:51:36.719Z,27.17
2019-02-27T00:54:05.305Z,27.63
2019-02-27T00:56:33.894Z,26.03
2019-02-27T00:59:02.648Z,26.43
2019-02-27T01:01:31.242Z,29.67
2019-02-27T01:04:02.328Z,27.50
2019-02-27T01:06:30.168Z,25.37
2019-02-27T01:08:58.761Z,32.57
2019-02-27T01:11:27.347Z,25.90
2019-02-27T01:13:55.919Z,25.93
2019-02-27T01:16:24.496Z,28.77
2019-02-27T01:18:53.096Z,31.60
2019-02-27T01:21:21.684Z,26.83
2019-02-27T01:23:50.348Z,25.07
2019-02-27T01:26:18.931Z,31.83
2019-02-27T01:28:47.512Z,26.10
2019-02-27T01:31:16.295Z,24.67
2019-02-27T01:33:44.892Z,25.90
2019-02-27T01:36:13.510Z,34.00
2019-02-27T01:38:42.212Z,32.07
2019-02-27T01:41:10.787Z,32.53
2019-02-27T01:43:41.972Z,30.17
2019-02-27T01:46:10.557Z,26.53
2019-02-27T01:48:42.787Z,26.50
2019-02-27T01:51:09.461Z,24.40
2019-02-27T01:53:40.463Z,28.23
2019-02-27T01:56:08.494Z,27.27
2019-02-27T01:58:56.415Z,29.23
2019-02-27T02:01:29.812Z,25.70
2019-02-27T02:03:55.331Z,25.43
2019-02-27T02:06:23.900Z,25.00
2019-02-27T02:09:08.763Z,25.10
2019-02-27T02:11:41.229Z,27.07
2019-02-27T02:14:22.694Z,25.23
2019-02-27T02:17:15.720Z,23.00
2019-02-27T02:20:11.819Z,24.30
2019-02-27T02:23:14.803Z,28.90
2019-02-27T02:26:10.116Z,24.33
2019-02-27T02:29:07.749Z,27.20
2019-02-27T02:31:50.365Z,25.90
2019-02-27T02:34:50.620Z,32.77
2019-02-27T02:37:37.119Z,28.33
2019-02-27T02:40:45.700Z,25.80
2019-02-27T02:43:41.629Z,25.77
2019-02-27T02:46:35.147Z,27.63
2019-02-27T02:49:41.999Z,26.77
2019-02-27T02:52:47.461Z,24.00
2019-02-27T02:55:41.331Z,26.13
2019-02-27T02:58:48.517Z,27.50
2019-02-27T03:01:40.548Z,25.57
2019-02-27T03:05:00.684Z,28.00
2019-02-27T03:08:06.678Z,25.37
2019-02-27T03:11:02.932Z,30.90
2019-02-27T03:14:16.874Z,27.13
2019-02-27T03:17:22.494Z,26.93
2019-02-27T03:20:27.312Z,26.10
2019-02-27T03:23:28.678Z,27.37
2019-02-27T03:26:06.353Z,27.80
2019-02-27T03:29:07.477Z,25.67
2019-02-27T03:32:07.441Z,27.40
2019-02-27T03:34:57.757Z,28.47
2019-02-27T03:37:37.404Z,30.07
2019-02-27T03:40:45.128Z,23.53
2019-02-27T03:43:45.660Z,24.87
2019-02-27T03:46:46.695Z,26.63
2019-02-27T03:49:42.601Z,34.10
2019-02-27T03:52:41.573Z,27.20
2019-02-27T03:55:50.443Z,29.77
2019-02-27T03:59:06.346Z,25.93
2019-02-27T04:02:18.796Z,27.07
2019-02-27T04:05:31.626Z,27.33
2019-02-27T04:08:43.478Z,27.97
2019-02-27T04:11:06.906Z,24.57
2019-02-27T04:13:35.705Z,31.77
2019-02-27T04:16:04.301Z,24.33
2019-02-27T04:18:31.781Z,30.00
2019-02-27T04:21:00.383Z,31.00
2019-02-27T04:23:29.025Z,30.93
2019-02-27T04:26:19.334Z,30.20
2019-02-27T04:28:47.322Z,28.33
2019-02-27T04:31:15.957Z,26.20
2019-02-27T04:33:44.537Z,25.80
2019-02-27T04:36:13.490Z,30.83
2019-02-27T04:38:42.209Z,29.77
2019-02-27T04:41:10.792Z,28.63
2019-02-27T04:43:39.388Z,29.90
2019-02-27T04:46:07.969Z,28.97
2019-02-27T04:48:36.568Z,26.97
2019-02-27T04:51:05.147Z,31.77
2019-02-27T04:53:33.724Z,24.63
2019-02-27T04:56:04.439Z,27.10
2019-02-27T04:58:33.049Z,29.57
2019-02-27T05:01:02.232Z,25.23
2019-02-27T05:03:30.810Z,27.80
2019-02-27T05:05:59.397Z,31.57
2019-02-27T05:08:28.007Z,27.83
2019-02-27T05:10:56.667Z,28.40
2019-02-27T05:13:25.556Z,24.27
2019-02-27T05:16:14.112Z,29.07
2019-02-27T05:18:43.358Z,22.93
2019-02-27T05:21:12.291Z,27.93
2019-02-27T05:23:40.985Z,25.33
2019-02-27T05:26:09.572Z,31.23
2019-02-27T05:28:38.257Z,26.77
2019-02-27T05:31:07.157Z,24.47
2019-02-27T05:33:36.486Z,25.80
2019-02-27T05:36:06.163Z,26.13
2019-02-27T05:38:34.840Z,29.47
2019-02-27T05:41:03.541Z,25.93
2019-02-27T05:43:32.119Z,23.47
2019-02-27T05:46:20.039Z,26.00
2019-02-27T05:48:50.879Z,26.87
2019-02-27T05:51:19.208Z,27.73
2019-02-27T05:53:48.042Z,24.63
2019-02-27T05:56:16.637Z,27.50
2019-02-27T05:58:45.208Z,26.63
2019-02-27T06:01:13.789Z,23.87
2019-02-27T06:03:42.416Z,25.27
2019-02-27T06:06:11.744Z,27.27
2019-02-27T06:08:41.157Z,24.77
2019-02-27T06:11:09.756Z,31.43
2019-02-27T06:13:58.009Z,31.23
2019-02-27T06:16:26.632Z,34.67
2019-02-27T06:18:56.228Z,26.70
2019-02-27T06:21:25.603Z,37.87
2019-02-27T06:23:54.239Z,26.13
2019-02-27T06:26:22.848Z,28.40
2019-02-27T06:28:51.427Z,29.97
2019-02-27T06:31:20.025Z,28.10
2019-02-27T06:33:48.617Z,29.13
2019-02-27T06:36:17.299Z,25.13
2019-02-27T06:38:45.880Z,24.17
2019-02-27T06:41:16.354Z,31.37
2019-02-27T06:43:45.120Z,30.87
2019-02-27T06:46:13.765Z,31.03
2019-02-27T06:48:43.537Z,33.13
2019-02-27T06:51:12.877Z,33.73
2019-02-27T06:53:44.733Z,29.23
2019-02-27T06:56:13.333Z,28.50
2019-02-27T06:58:42.033Z,28.97
2019-02-27T07:01:13.136Z,29.00
2019-02-27T07:03:40.969Z,32.50
2019-02-27T07:06:09.609Z,28.03
2019-02-27T07:08:38.713Z,32.30
2019-02-27T07:11:10.651Z,40.60
2019-02-27T07:13:37.708Z,27.77
2019-02-27T07:16:06.367Z,32.27
2019-02-27T07:18:36.476Z,35.23
2019-02-27T07:21:05.288Z,29.37
2019-02-27T07:23:35.291Z,36.73
2019-02-27T07:26:04.215Z,30.93
2019-02-27T07:28:32.863Z,41.27
2019-02-27T07:31:01.548Z,30.87
2019-02-27T07:33:30.257Z,39.73
2019-02-27T07:36:03.317Z,32.23
2019-02-27T07:38:29.282Z,35.23
2019-02-27T07:41:20.304Z,26.23
2019-02-27T07:43:47.623Z,28.90
2019-02-27T07:46:22.021Z,26.53
2019-02-27T07:48:47.754Z,27.33
2019-02-27T07:51:20.823Z,25.07
2019-02-27T07:53:51.430Z,24.40
2019-02-27T07:56:19.207Z,18.10
2019-02-27T07:58:47.796Z,26.73
2019-02-27T08:01:16.475Z,21.93
2019-02-27T08:03:45.820Z,16.90
2019-02-27T08:06:14.769Z,20.00
2019-02-27T08:08:43.394Z,21.40
2019-02-27T08:11:13.669Z,17.13
2019-02-27T08:13:42.344Z,19.30
2019-02-27T08:16:10.958Z,17.17
2019-02-27T08:18:39.559Z,17.47
2019-02-27T08:21:08.219Z,22.00
2019-02-27T08:23:37.221Z,21.30
2019-02-27T08:26:05.826Z,16.60
2019-02-27T08:28:34.447Z,20.63
2019-02-27T08:31:03.234Z,18.07
2019-02-27T08:33:32.563Z,17.50
2019-02-27T08:36:01.161Z,16.10
2019-02-27T08:38:29.757Z,19.13
2019-02-27T08:40:58.520Z,17.43
2019-02-27T08:43:27.245Z,17.17
2019-02-27T08:45:55.891Z,17.03
2019-02-27T08:48:24.488Z,16.77
2019-02-27T08:50:53.084Z,13.87
2019-02-27T08:53:25.853Z,14.73
2019-02-27T08:55:52.045Z,14.40
2019-02-27T08:58:20.666Z,14.50
2019-02-27T09:00:51.732Z,15.33
2019-02-27T09:03:20.813Z,17.87
2019-02-27T09:05:50.995Z,14.53
2019-02-27T09:08:19.997Z,14.20
2019-02-27T09:10:48.593Z,15.10
2019-02-27T09:13:17.365Z,16.27
2019-02-27T09:15:46.030Z,14.90
2019-02-27T09:18:14.806Z,15.40
2019-02-27T09:21:02.870Z,15.83
2019-02-27T09:23:31.468Z,13.67
2019-02-27T09:26:02.543Z,19.70
2019-02-27T09:28:30.984Z,13.70
2019-02-27T09:31:04.285Z,15.37
2019-02-27T09:33:38.689Z,19.17
2019-02-27T09:36:03.597Z,14.70
2019-02-27T09:38:35.028Z,15.00
2019-02-27T09:41:05.986Z,15.07
2019-02-27T09:43:34.576Z,15.50
2019-02-27T09:46:06.311Z,16.90
2019-02-27T09:48:35.038Z,14.50
2019-02-27T09:51:22.969Z,17.33
2019-02-27T09:54:11.080Z,18.87
2019-02-27T09:56:41.259Z,15.60
2019-02-27T09:59:09.880Z,14.70
2019-02-27T10:01:38.580Z,16.53
2019-02-27T10:04:07.199Z,15.90
2019-02-27T10:06:35.832Z,15.47
2019-02-27T10:09:05.586Z,15.27
2019-02-27T10:11:34.188Z,17.40
2019-02-27T10:14:05.216Z,16.70
2019-02-27T10:16:34.858Z,18.10
2019-02-27T10:19:04.097Z,17.50
2019-02-27T10:21:32.720Z,18.50
2019-02-27T10:24:04.473Z,15.50
2019-02-27T10:26:31.944Z,16.83
2019-02-27T10:29:00.533Z,16.43
2019-02-27T10:31:29.204Z,15.77
2019-02-27T10:33:58.120Z,16.40
2019-02-27T10:36:26.708Z,15.13
2019-02-27T10:38:55.417Z,15.00
2019-02-27T10:41:44.874Z,15.10
2019-02-27T10:44:13.653Z,15.30
2019-02-27T10:46:42.640Z,15.73
2019-02-27T10:49:11.648Z,15.37
2019-02-27T10:51:41.477Z,16.97
2019-02-27T10:54:10.680Z,18.33
2019-02-27T10:56:39.285Z,15.23
2019-02-27T10:59:27.207Z,17.33
2019-02-27T11:01:55.855Z,14.77
2019-02-27T11:04:24.504Z,16.73
2019-02-27T11:07:13.233Z,18.70
2019-02-27T11:09:43.173Z,15.67
2019-02-27T11:12:12.149Z,16.47
2019-02-27T11:14:40.752Z,17.17
2019-02-27T11:17:09.348Z,16.13
2019-02-27T11:19:57.287Z,15.83
2019-02-27T11:22:25.897Z,16.87
2019-02-27T11:24:54.516Z,20.17
2019-02-27T11:27:23.149Z,16.63
2019-02-27T11:29:51.819Z,18.27
2019-02-27T11:32:23.811Z,16.33
2019-02-27T11:34:50.704Z,16.90
2019-02-27T11:37:38.672Z,17.70
2019-02-27T11:40:08.534Z,17.00
2019-02-27T11:42:44.553Z,17.17
2019-02-27T11:45:32.720Z,16.73
2019-02-27T11:48:01.640Z,21.37
2019-02-27T11:50:30.224Z,21.97
2019-02-27T11:53:18.171Z,18.37
2019-02-27T11:55:59.501Z,17.53
2019-02-27T11:58:28.122Z,19.80
2019-02-27T12:00:57.083Z,18.00
2019-02-27T12:03:25.697Z,18.63
2019-02-27T12:05:54.279Z,19.40
2019-02-27T12:08:25.802Z,16.73
2019-02-27T12:10:53.196Z,18.57
2019-02-27T12:13:22.193Z,19.70
2019-02-27T12:15:50.884Z,18.77
2019-02-27T12:18:19.536Z,17.97
2019-02-27T12:20:48.166Z,30.23
2019-02-27T12:23:16.855Z,19.10
2019-02-27T12:25:45.465Z,18.47
2019-02-27T12:28:17.709Z,23.03
2019-02-27T12:30:44.741Z,20.80
2019-02-27T12:33:13.372Z,20.03
2019-02-27T12:35:44.429Z,20.47
2019-02-27T12:38:12.373Z,19.23
2019-02-27T12:40:41.087Z,19.10
2019-02-27T12:43:09.853Z,22.87
2019-02-27T12:45:41.240Z,18.80
2019-02-27T12:48:12.622Z,19.23
2019-02-27T12:50:40.513Z,24.23
2019-02-27T12:53:09.128Z,31.33
2019-02-27T12:55:38.592Z,26.27
2019-02-27T12:58:07.202Z,23.93
2019-02-27T13:00:36.727Z,25.07
2019-02-27T13:03:08.336Z,23.97
2019-02-27T13:05:35.799Z,20.90
2019-02-27T13:08:04.522Z,36.90
2019-02-27T13:10:34.262Z,29.70
2019-02-27T13:13:06.209Z,28.60
2019-02-27T13:15:54.150Z,37.83
2019-02-27T13:18:22.807Z,21.20
2019-02-27T13:20:53.485Z,27.13
2019-02-27T13:23:21.830Z,25.57
2019-02-27T13:25:50.479Z,22.63
2019-02-27T13:28:19.084Z,21.53
2019-02-27T13:30:47.717Z,34.80
2019-02-27T13:33:19.220Z,26.40
2019-02-27T13:35:47.873Z,21.60
2019-02-27T13:38:18.543Z,23.10
2019-02-27T13:40:46.895Z,33.90
2019-02-27T13:43:18.005Z,26.33
2019-02-27T13:45:47.525Z,24.50
2019-02-27T13:48:37.386Z,32.30
2019-02-27T13:51:06.655Z,25.20
2019-02-27T13:53:35.287Z,25.13
2019-02-27T13:56:25.119Z,27.77
2019-02-27T13:58:53.805Z,26.53
2019-02-27T14:01:25.075Z,24.53
2019-02-27T14:03:55.065Z,27.90
2019-02-27T14:06:23.688Z,30.60
2019-02-27T14:08:52.293Z,23.37
2019-02-27T14:11:20.991Z,25.03
2019-02-27T14:13:49.578Z,28.33
2019-02-27T14:16:18.258Z,25.83
2019-02-27T14:18:49.803Z,29.93
2019-02-27T14:21:17.320Z,25.40
2019-02-27T14:23:46.831Z,24.27
2019-02-27T14:26:38.250Z,26.07
2019-02-27T14:29:05.938Z,28.23
2019-02-27T14:31:53.873Z,27.40
2019-02-27T14:34:27.130Z,26.73
2019-02-27T14:36:53.200Z,25.20
2019-02-27T14:39:21.795Z,30.30
2019-02-27T14:41:51.373Z,30.53
2019-02-27T14:44:20.570Z,25.43
2019-02-27T14:46:49.222Z,27.43
2019-02-27T14:49:17.828Z,29.53
2019-02-27T14:51:46.448Z,24.83
2019-02-27T14:54:16.087Z,25.13
2019-02-27T14:56:44.728Z,30.27
2019-02-27T14:59:32.769Z,29.63
2019-02-27T15:02:04.141Z,27.83
2019-02-27T15:04:33.378Z,32.80
2019-02-27T15:07:02.288Z,33.37
2019-02-27T15:09:30.892Z,32.47
2019-02-27T15:11:59.509Z,31.87
2019-02-27T15:14:31.023Z,33.40
2019-02-27T15:16:58.731Z,33.93
2019-02-27T15:19:30.122Z,34.93
2019-02-27T15:21:57.778Z,33.67
2019-02-27T15:24:26.423Z,32.77
2019-02-27T15:26:55.022Z,38.80
2019-02-27T15:29:23.648Z,40.93
2019-02-27T15:31:55.433Z,38.03
2019-02-27T15:34:24.241Z,31.33
2019-02-27T15:36:53.172Z,34.60
2019-02-27T15:39:21.808Z,39.53
2019-02-27T15:41:50.424Z,36.20
2019-02-27T15:44:19.356Z,36.00
2019-02-27T15:46:47.991Z,38.03
2019-02-27T15:49:16.685Z,42.47
2019-02-27T15:51:45.424Z,38.80
2019-02-27T15:54:14.140Z,38.57
2019-02-27T15:56:45.241Z,42.17
2019-02-27T15:59:13.263Z,41.73
2019-02-27T16:01:41.857Z,39.07
2019-02-27T16:04:10.457Z,37.73
2019-02-27T16:06:39.701Z,43.07
2019-02-27T16:09:09.417Z,41.23
2019-02-27T16:11:38.041Z,41.37
2019-02-27T16:14:10.232Z,38.73
2019-02-27T16:16:37.023Z,38.67
2019-02-27T16:19:07.953Z,44.67
2019-02-27T16:21:36.088Z,39.93
2019-02-27T16:24:04.841Z,37.67
2019-02-27T16:26:33.468Z,38.77
2019-02-27T16:29:02.081Z,38.60
2019-02-27T16:31:30.693Z,36.63
2019-02-27T16:33:59.489Z,46.33
2019-02-27T16:36:36.043Z,38.60
2019-02-27T16:38:58.619Z,41.03
2019-02-27T16:41:28.987Z,44.60
2019-02-27T16:43:57.681Z,46.30
2019-02-27T16:46:26.373Z,41.10
2019-02-27T16:48:55.014Z,39.87
2019-02-27T16:51:23.946Z,44.20
2019-02-27T16:53:53.193Z,41.97
2019-02-27T16:56:46.489Z,48.03
2019-02-27T16:59:12.258Z,38.63
2019-02-27T17:01:41.083Z,49.03
2019-02-27T17:04:11.320Z,41.57
2019-02-27T17:06:40.561Z,48.37
2019-02-27T17:09:10.066Z,44.87
2019-02-27T17:11:39.373Z,47.00
2019-02-27T17:14:27.326Z,63.17
2019-02-27T17:16:55.943Z,48.43
2019-02-27T17:19:24.557Z,54.67
2019-02-27T17:21:53.143Z,48.97
2019-02-27T17:24:22.058Z,48.33
2019-02-27T17:26:50.805Z,50.27
2019-02-27T17:29:19.464Z,53.20
2019-02-27T17:31:49.561Z,50.33
2019-02-27T17:34:18.381Z,48.97
2019-02-27T17:36:48.264Z,52.53
2019-02-27T17:39:22.250Z,52.93
2019-02-27T17:41:49.351Z,53.13
2019-02-27T17:44:17.966Z,53.47
2019-02-27T17:46:46.569Z,53.57
2019-02-27T17:49:15.182Z,82.03
2019-02-27T17:52:11.096Z,54.47
2019-02-27T17:54:33.524Z,57.07
2019-02-27T17:57:02.153Z,55.23
2019-02-27T17:59:30.809Z,52.43
2019-02-27T18:01:59.460Z,49.90
2019-02-27T18:04:28.065Z,54.63
2019-02-27T18:06:58.782Z,52.97
2019-02-27T18:09:27.317Z,56.47
2019-02-27T18:11:56.184Z,54.70
2019-02-27T18:14:25.053Z,60.30
2019-02-27T18:16:53.771Z,57.10
2019-02-27T18:19:22.400Z,52.17
2019-02-27T18:21:51.013Z,58.20
2019-02-27T18:24:19.630Z,56.23
2019-02-27T18:26:51.180Z,58.07
2019-02-27T18:29:18.589Z,49.73
2019-02-27T18:31:47.283Z,55.17
2019-02-27T18:34:15.941Z,56.47
2019-02-27T18:36:46.551Z,55.07
2019-02-27T18:39:16.445Z,58.00
2019-02-27T18:42:04.712Z,61.87
2019-02-27T18:44:33.340Z,58.10
2019-02-27T18:47:02.466Z,54.67
2019-02-27T18:49:31.228Z,62.70
2019-02-27T18:51:59.816Z,62.03
2019-02-27T18:54:28.459Z,54.77
2019-02-27T18:56:57.181Z,54.87
2019-02-27T18:59:29.362Z,57.93
2019-02-27T19:01:56.419Z,55.50
2019-02-27T19:04:25.052Z,57.13
2019-02-27T19:06:53.984Z,53.10
2019-02-27T19:09:22.607Z,54.53
2019-02-27T19:11:51.601Z,60.87
2019-02-27T19:14:20.325Z,54.97
2019-02-27T19:17:08.253Z,55.93
2019-02-27T19:19:36.878Z,49.23
2019-02-27T19:22:08.031Z,59.10
2019-02-27T19:24:57.528Z,57.47
2019-02-27T19:27:25.519Z,59.80
2019-02-27T19:29:54.219Z,59.00
2019-02-27T19:32:23.342Z,63.10
2019-02-27T19:34:52.904Z,58.23
2019-02-27T19:37:21.493Z,62.13
2019-02-27T19:39:50.071Z,64.27
2019-02-27T19:42:18.671Z,54.73
2019-02-27T19:44:47.641Z,59.33
2019-02-27T19:47:19.064Z,58.17
2019-02-27T19:49:47.746Z,56.23
2019-02-27T19:52:19.531Z,54.77
2019-02-27T19:54:51.717Z,57.90
2019-02-27T19:57:18.445Z,51.90
2019-02-27T19:59:47.635Z,52.27
2019-02-27T20:02:16.349Z,56.27
2019-02-27T20:04:45.971Z,59.77
2019-02-27T20:07:15.710Z,59.60
2019-02-27T20:09:44.297Z,62.43
2019-02-27T20:12:15.801Z,57.63
2019-02-27T20:14:43.248Z,60.77
2019-02-27T20:17:13.133Z,53.90
2019-02-27T20:19:43.594Z,64.13
2019-02-27T20:22:12.192Z,57.23
2019-02-27T20:24:43.000Z,53.10
2019-02-27T20:27:11.169Z,65.73
2019-02-27T20:29:59.121Z,60.43
2019-02-27T20:32:28.520Z,58.50
2019-02-27T20:34:59.789Z,56.80
2019-02-27T20:37:28.464Z,58.50
2019-02-27T20:39:59.165Z,65.60
2019-02-27T20:42:50.399Z,59.97
2019-02-27T20:45:17.614Z,62.43
2019-02-27T20:47:46.304Z,57.53
2019-02-27T20:50:21.822Z,59.20
2019-02-27T20:52:49.446Z,68.03
2019-02-27T20:55:18.742Z,60.30
2019-02-27T20:58:06.766Z,60.40
2019-02-27T21:00:36.552Z,62.30
2019-02-27T21:03:06.322Z,64.77
2019-02-27T21:05:35.457Z,63.20
2019-02-27T21:08:04.415Z,57.43
2019-02-27T21:10:33.130Z,59.67
2019-02-27T21:13:01.866Z,67.20
2019-02-27T21:15:49.797Z,57.50
2019-02-27T21:18:32.656Z,73.90
2019-02-27T21:21:02.263Z,62.53
2019-02-27T21:23:31.893Z,53.87
2019-02-27T21:26:03.829Z,49.63
2019-02-27T21:28:32.468Z,61.53
2019-02-27T21:31:01.101Z,57.70
2019-02-27T21:33:29.744Z,59.40
2019-02-27T21:36:00.115Z,61.27
2019-02-27T21:38:28.659Z,64.97
2019-02-27T21:41:19.379Z,60.20
2019-02-27T21:43:47.990Z,57.53
2019-02-27T21:46:19.353Z,64.30
2019-02-27T21:48:47.958Z,72.03
2019-02-27T21:51:19.751Z,65.67
2019-02-27T21:53:48.364Z,67.63
2019-02-27T21:56:19.358Z,67.97
2019-02-27T21:58:47.966Z,71.67
2019-02-27T22:01:19.385Z,59.37
2019-02-27T22:03:46.954Z,69.83
2019-02-27T22:06:15.702Z,64.20
2019-02-27T22:08:44.333Z,60.77
2019-02-27T22:11:12.949Z,61.00
2019-02-27T22:13:42.235Z,63.33
2019-02-27T22:16:11.873Z,64.40
2019-02-27T22:18:40.456Z,63.73
2019-02-27T22:21:09.039Z,74.70
2019-02-27T22:23:37.639Z,67.17
2019-02-27T22:26:06.212Z,61.90
2019-02-27T22:28:34.803Z,71.87
2019-02-27T22:31:06.787Z,66.10
2019-02-27T22:33:33.905Z,69.60
2019-02-27T22:36:03.109Z,69.17
2019-02-27T22:38:31.729Z,72.47
2019-02-27T22:41:00.318Z,70.47
2019-02-27T22:43:28.903Z,65.97
2019-02-27T22:46:17.165Z,65.20
2019-02-27T22:48:45.894Z,72.43
2019-02-27T22:51:14.579Z,72.47
2019-02-27T22:53:43.188Z,73.23
2019-02-27T22:56:15.790Z,83.50
2019-02-27T22:58:42.097Z,67.10
2019-02-27T23:01:22.521Z,77.53
2019-02-27T23:03:57.906Z,79.33
2019-02-27T23:06:27.230Z,79.43
2019-02-27T23:08:55.808Z,79.57
2019-02-27T23:11:24.436Z,79.17
2019-02-27T23:13:53.381Z,84.77
2019-02-27T23:16:22.112Z,75.10
2019-02-27T23:18:50.772Z,80.80
2019-02-27T23:21:19.414Z,75.57
2019-02-27T23:23:48.032Z,86.77
2019-02-27T23:26:19.894Z,82.10
2019-02-27T23:28:46.997Z,75.40
2019-02-27T23:31:15.762Z,75.83
2019-02-27T23:33:44.407Z,76.97
2019-02-27T23:36:13.049Z,80.00
2019-02-27T23:38:41.644Z,84.10
2019-02-27T23:41:10.261Z,83.87
2019-02-27T23:43:38.855Z,81.83
2019-02-27T23:46:07.441Z,80.67
2019-02-27T23:48:36.761Z,86.93
2019-02-27T23:51:05.616Z,79.43
2019-02-27T23:53:34.255Z,77.77
2019-02-27T23:56:03.061Z,81.80
2019-02-27T23:58:31.640Z,77.83
